Time;durP1;ratioP1;P1;durP2;ratioP2;P2;SDS_P1;SDS_P2;PMS_P1;PMS_P2;Temp;Humidity;BMP_temperature;BMP_pressure;BME280_temperature;BME280_humidity;BME280_pressure;Samples;Min_cycle;Max_cycle;Signal;HPM_P1;HPM_P2
2023/04/20 00:01:45;;;;;;;;;;;;;;;20.51;50.28;101578.91;4907786;29;2627;-67
2023/04/20 00:04:12;;;;;;;;;;;;;;;20.50;50.50;101575.31;4921967;29;2817;-67
2023/04/20 00:06:38;;;;;;;;;;;;;;;20.50;50.41;101581.06;4920426;29;2615;-67
2023/04/20 00:09:05;;;;;;;;;;;;;;;20.51;50.72;101570.28;4922232;29;3090;-67
2023/04/20 00:11:31;;;;;;;;;;;;;;;20.50;50.55;101583.94;4924960;29;3016;-67
2023/04/20 00:13:58;;;;;;;;;;;;;;;20.50;50.45;101577.41;4924780;29;2504;-67
2023/04/20 00:16:24;;;;;;;;;;;;;;;20.48;50.25;101572.31;4923161;29;2687;-67
2023/04/20 00:18:51;;;;;;;;;;;;;;;20.49;50.56;101573.03;4925995;29;2934;-67
2023/04/20 00:21:20;;;;;;;;;;;;;;;20.48;50.43;101575.19;4907223;29;2775;-67
2023/04/20 00:23:47;;;;;;;;;;;;;;;20.47;50.36;101567.16;4925066;29;2967;-67
2023/04/20 00:26:13;;;;;;;;;;;;;;;20.47;50.55;101572.94;4922297;29;2631;-67
2023/04/20 00:28:40;;;;;;;;;;;;;;;20.46;50.55;101565.69;4923211;29;2735;-67
2023/04/20 00:31:07;;;;;;;;;;;;;;;20.45;50.56;101562.03;4918957;29;3021;-67
2023/04/20 00:33:33;;;;;;;;;;;;;;;20.45;50.40;101564.91;4923986;29;3032;-67
2023/04/20 00:36:00;;;;;;;;;;;;;;;20.45;50.47;101562.03;4895935;29;2895;-68
2023/04/20 00:38:29;;;;;;;;;;;;;;;20.44;50.55;101560.56;4922758;29;2750;-68
2023/04/20 00:40:58;;;;;;;;;;;;;;;20.47;50.60;101561.41;4921640;29;2694;-68
2023/04/20 00:43:24;;;;;;;;;;;;;;;20.47;50.58;101565.03;4926584;29;2667;-67
2023/04/20 00:45:51;;;;;;;;;;;;;;;20.47;50.73;101565.03;4921299;29;2668;-66
2023/04/20 00:48:18;;;;;;;;;;;;;;;20.47;50.68;101567.91;4902947;29;2784;-67
2023/04/20 00:50:44;;;;;;;;;;;;;;;20.46;50.56;101566.44;4903615;29;2660;-67
2023/04/20 00:53:11;;;;;;;;;;;;;;;20.44;50.61;101566.31;4925623;29;2736;-67
2023/04/20 00:55:37;;;;;;;;;;;;;;;20.44;50.69;101560.56;4920850;29;3036;-67
2023/04/20 00:58:04;;;;;;;;;;;;;;;20.42;50.57;101560.44;4910475;29;2749;-67
2023/04/20 01:00:31;;;;;;;;;;;;;;;20.42;50.60;101560.44;4906347;29;2644;-67
2023/04/20 01:02:58;;;;;;;;;;;;;;;20.42;50.55;101562.56;4918825;29;2902;-67
2023/04/20 01:05:25;;;;;;;;;;;;;;;20.41;50.56;101556.06;4894277;29;2826;-67
2023/04/20 01:07:53;;;;;;;;;;;;;;;20.40;50.69;101548.81;4906972;29;2858;-67
2023/04/20 01:10:19;;;;;;;;;;;;;;;20.40;50.51;101545.19;4924871;29;3042;-67
2023/04/20 01:12:46;;;;;;;;;;;;;;;20.38;50.75;101550.81;4921416;29;2769;-66
2023/04/20 01:15:12;;;;;;;;;;;;;;;20.39;50.56;101546.59;4926689;29;2306;-67
2023/04/20 01:17:39;;;;;;;;;;;;;;;20.39;50.67;101543.72;4920440;29;2742;-67
2023/04/20 01:20:13;;;;;;;;;;;;;;;20.38;50.65;101540.06;4916474;29;2669;-67
2023/04/20 01:22:43;;;;;;;;;;;;;;;20.38;50.59;101545.81;4920211;29;2822;-67
2023/04/20 01:25:11;;;;;;;;;;;;;;;20.37;50.50;101544.34;4922400;29;2778;-67
2023/04/20 01:27:37;;;;;;;;;;;;;;;20.36;50.42;101539.19;4900370;29;2864;-66
2023/04/20 01:30:03;;;;;;;;;;;;;;;20.36;50.64;101534.19;4911609;29;2949;-67
2023/04/20 01:32:30;;;;;;;;;;;;;;;20.35;50.54;101541.34;4920776;29;2881;-67
2023/04/20 01:34:57;;;;;;;;;;;;;;;20.35;50.70;101541.34;4919589;29;2875;-67
2023/04/20 01:37:24;;;;;;;;;;;;;;;20.34;50.54;101539.84;4921210;29;2973;-69
2023/04/20 01:39:50;;;;;;;;;;;;;;;20.33;50.59;101532.59;4921198;29;2644;-77
2023/04/20 01:42:19;;;;;;;;;;;;;;;20.33;50.60;101538.34;4908779;29;2470;-68
2023/04/20 01:44:47;;;;;;;;;;;;;;;20.33;50.65;101540.47;4921187;29;2632;-67
2023/04/20 01:47:13;;;;;;;;;;;;;;;20.33;50.65;101534.72;4922014;29;3198;-67
2023/04/20 01:49:40;;;;;;;;;;;;;;;20.32;50.65;101536.84;4921520;29;2799;-68
2023/04/20 01:52:07;;;;;;;;;;;;;;;20.32;50.61;101533.22;4904838;29;2886;-67
2023/04/20 01:54:34;;;;;;;;;;;;;;;20.31;50.49;101541.09;4929337;29;2668;-67
2023/04/20 01:57:01;;;;;;;;;;;;;;;20.30;50.59;101536.75;4926562;29;2686;-67
2023/04/20 01:59:27;;;;;;;;;;;;;;;20.30;50.49;101542.50;4909904;29;2691;-67
2023/04/20 02:01:54;;;;;;;;;;;;;;;20.30;50.54;101539.63;4926703;29;2647;-67
2023/04/20 02:04:20;;;;;;;;;;;;;;;20.29;50.76;101543.84;4919945;29;2793;-68
2023/04/20 02:06:46;;;;;;;;;;;;;;;20.29;50.57;101546.72;4924906;29;2466;-67
2023/04/20 02:09:13;;;;;;;;;;;;;;;20.29;50.44;101532.34;4922511;29;2964;-68
2023/04/20 02:11:39;;;;;;;;;;;;;;;20.27;50.66;101533.00;4910188;29;2702;-67
2023/04/20 02:14:05;;;;;;;;;;;;;;;20.31;50.50;101541.09;4913610;29;2488;-67
2023/04/20 02:16:32;;;;;;;;;;;;;;;20.30;50.60;101545.38;4911771;29;2798;-67
2023/04/20 02:18:58;;;;;;;;;;;;;;;20.28;50.63;101543.13;4931170;29;3080;-67
2023/04/20 02:21:25;;;;;;;;;;;;;;;20.28;50.57;101548.88;4909940;29;2685;-68
2023/04/20 02:23:51;;;;;;;;;;;;;;;20.27;50.57;101552.38;4922755;29;2847;-67
2023/04/20 02:26:18;;;;;;;;;;;;;;;20.26;50.65;101545.13;4920012;29;2598;-67
2023/04/20 02:28:44;;;;;;;;;;;;;;;20.26;50.63;101545.88;4910776;29;2724;-67
2023/04/20 02:31:10;;;;;;;;;;;;;;;20.24;50.69;101542.88;4922125;29;2833;-67
2023/04/20 02:33:37;;;;;;;;;;;;;;;20.25;50.58;101549.41;4925647;29;2820;-68
2023/04/20 02:36:04;;;;;;;;;;;;;;;20.24;50.70;101547.88;4919920;29;2616;-68
2023/04/20 02:38:31;;;;;;;;;;;;;;;20.25;50.66;101549.41;4915602;29;2502;-68
2023/04/20 02:40:58;;;;;;;;;;;;;;;20.27;50.43;101552.38;4918598;29;2785;-68
2023/04/20 02:43:25;;;;;;;;;;;;;;;20.29;50.40;101543.84;4920053;29;2780;-67
2023/04/20 02:45:52;;;;;;;;;;;;;;;20.30;50.60;101546.09;4904248;29;3110;-67
2023/04/20 02:48:20;;;;;;;;;;;;;;;20.32;50.51;101545.50;4904400;29;2721;-67
2023/04/20 02:50:47;;;;;;;;;;;;;;;20.34;50.68;101551.38;4907840;29;2583;-68
2023/04/20 02:53:19;;;;;;;;;;;;;;;20.36;50.61;101542.09;4909872;29;2759;-67
2023/04/20 02:55:52;;;;;;;;;;;;;;;20.36;50.57;101542.81;4908449;29;2667;-67
2023/04/20 02:58:26;;;;;;;;;;;;;;;20.37;50.63;101547.22;4909366;29;2570;-67
2023/04/20 03:01:10;;;;;;;;;;;;;;;20.38;50.62;101551.56;4910817;29;2674;-68
2023/04/20 03:03:37;;;;;;;;;;;;;;;20.38;50.65;101548.69;4915273;29;2774;-68
2023/04/20 03:06:08;;;;;;;;;;;;;;;20.39;50.74;101549.47;4908930;29;2698;-68
2023/04/20 03:08:35;;;;;;;;;;;;;;;20.37;50.68;101550.09;4912514;29;2704;-67
2023/04/20 03:11:21;;;;;;;;;;;;;;;20.38;50.69;101542.94;4905044;29;2554;-67
2023/04/20 03:13:49;;;;;;;;;;;;;;;20.39;50.74;101553.09;4905166;29;2696;-68
2023/04/20 03:16:16;;;;;;;;;;;;;;;20.41;50.84;101552.44;4911484;29;3042;-68
2023/04/20 03:18:47;;;;;;;;;;;;;;;20.40;50.56;101553.81;4919630;29;2497;-67
2023/04/20 03:21:13;;;;;;;;;;;;;;;20.40;50.68;101548.06;4912872;29;3112;-66
2023/04/20 03:23:40;;;;;;;;;;;;;;;20.40;50.62;101543.06;4899874;29;2886;-68
2023/04/20 03:26:07;;;;;;;;;;;;;;;20.41;50.79;101543.81;4907726;29;2732;-68
2023/04/20 03:29:03;;;;;;;;;;;;;;;20.42;50.75;101551.81;4912329;29;2962;-67
2023/04/20 03:31:30;;;;;;;;;;;;;;;20.42;50.57;101551.06;4919204;29;2615;-68
2023/04/20 03:33:56;;;;;;;;;;;;;;;20.42;50.59;101546.06;4906465;29;2694;-68
2023/04/20 03:36:23;;;;;;;;;;;;;;;20.42;50.54;101551.81;4909524;29;2874;-68
2023/04/20 03:38:49;;;;;;;;;;;;;;;20.42;50.71;101557.56;4923863;29;2642;-67
2023/04/20 03:41:15;;;;;;;;;;;;;;;20.41;50.54;101550.31;4921735;29;2592;-68
2023/04/20 03:43:42;;;;;;;;;;;;;;;20.41;50.72;101561.84;4915365;29;3407;-67
2023/04/20 03:46:08;;;;;;;;;;;;;;;20.42;50.52;101563.31;4906972;29;2707;-68
2023/04/20 03:48:35;;;;;;;;;;;;;;;20.42;50.75;101562.56;4915466;29;2717;-67
2023/04/20 03:51:01;;;;;;;;;;;;;;;20.43;50.69;101567.72;4909314;29;2630;-67
2023/04/20 03:53:29;;;;;;;;;;;;;;;20.42;50.59;101563.31;4908031;29;2842;-67
2023/04/20 03:55:56;;;;;;;;;;;;;;;20.43;50.71;101561.94;4897087;29;2767;-68
2023/04/20 03:58:24;;;;;;;;;;;;;;;20.43;50.65;101550.44;4908749;29;2693;-68
2023/04/20 04:01:01;;;;;;;;;;;;;;;20.43;50.60;101561.94;4912519;29;2779;-67
2023/04/20 04:03:28;;;;;;;;;;;;;;;20.44;50.70;101554.81;4905330;29;2645;-68
2023/04/20 04:05:55;;;;;;;;;;;;;;;20.45;50.45;101558.44;4898322;29;2763;-67
2023/04/20 04:08:21;;;;;;;;;;;;;;;20.45;50.52;101555.53;4923954;29;2433;-67
2023/04/20 04:10:48;;;;;;;;;;;;;;;20.45;50.70;101553.41;4905043;29;2656;-67
2023/04/20 04:13:14;;;;;;;;;;;;;;;20.46;50.69;101562.81;4919041;29;2722;-67
2023/04/20 04:15:40;;;;;;;;;;;;;;;20.45;50.58;101562.03;4896368;29;2643;-67
2023/04/20 04:18:11;;;;;;;;;;;;;;;20.44;50.51;101563.44;4917534;29;2514;-67
2023/04/20 04:20:39;;;;;;;;;;;;;;;20.46;50.58;101565.69;4906874;29;2688;-67
2023/04/20 04:23:07;;;;;;;;;;;;;;;20.45;50.52;101562.03;4908468;29;2600;-67
2023/04/20 04:25:41;;;;;;;;;;;;;;;20.47;50.48;101565.03;4911682;29;2703;-68
2023/04/20 04:28:10;;;;;;;;;;;;;;;20.45;50.47;101570.66;4902102;29;2652;-68
2023/04/20 04:30:42;;;;;;;;;;;;;;;20.46;50.55;101575.06;4908990;29;2929;-68
2023/04/20 04:33:13;;;;;;;;;;;;;;;20.47;50.75;101579.44;4910810;29;2677;-68
2023/04/20 04:35:42;;;;;;;;;;;;;;;20.47;50.57;101575.81;4904903;29;2636;-68
2023/04/20 04:38:10;;;;;;;;;;;;;;;20.47;50.79;101578.69;4911702;29;2601;-67
2023/04/20 04:40:38;;;;;;;;;;;;;;;20.47;50.66;101581.56;4907785;29;2754;-67
2023/04/20 04:43:09;;;;;;;;;;;;;;;20.47;50.41;101575.81;4905943;29;2877;-67
2023/04/20 04:45:42;;;;;;;;;;;;;;;20.47;50.75;101575.81;4894218;29;2585;-67
2023/04/20 04:48:10;;;;;;;;;;;;;;;20.46;50.64;101575.06;4906804;29;2688;-68
2023/04/20 04:50:37;;;;;;;;;;;;;;;20.46;50.75;101575.06;4916908;29;3004;-67
2023/04/20 04:53:04;;;;;;;;;;;;;;;20.47;50.73;101587.31;4909241;29;2819;-68
2023/04/20 04:55:31;;;;;;;;;;;;;;;20.47;50.71;101590.19;4927318;29;2746;-68
2023/04/20 04:57:57;;;;;;;;;;;;;;;20.47;50.67;101588.06;4922657;29;2841;-68
2023/04/20 05:00:24;;;;;;;;;;;;;;;20.47;50.77;101608.19;4925773;29;2738;-67
2023/04/20 05:02:51;;;;;;;;;;;;;;;20.48;50.84;101594.56;4916048;29;2766;-67
2023/04/20 05:05:18;;;;;;;;;;;;;;;20.47;50.74;101604.56;4923330;29;2682;-67
2023/04/20 05:07:45;;;;;;;;;;;;;;;20.47;50.77;101599.56;4915997;29;2742;-67
2023/04/20 05:10:11;;;;;;;;;;;;;;;20.47;50.81;101599.56;4923096;29;2957;-67
2023/04/20 05:12:40;;;;;;;;;;;;;;;20.49;50.63;101588.16;4922603;29;2771;-67
2023/04/20 05:15:07;;;;;;;;;;;;;;;20.48;50.73;101594.56;4925143;29;2595;-67
2023/04/20 05:17:33;;;;;;;;;;;;;;;20.48;50.73;101589.56;4916533;29;2663;-67
2023/04/20 05:20:00;;;;;;;;;;;;;;;20.48;50.63;101589.56;4926229;29;2699;-67
2023/04/20 05:22:26;;;;;;;;;;;;;;;20.49;50.62;101593.94;4907409;29;2592;-67
2023/04/20 05:24:53;;;;;;;;;;;;;;;20.49;50.64;101596.06;4927553;29;2560;-68
2023/04/20 05:27:19;;;;;;;;;;;;;;;20.49;50.62;101602.56;4918215;29;2737;-68
2023/04/20 05:29:46;;;;;;;;;;;;;;;20.49;50.63;101608.31;4928476;29;2788;-67
2023/04/20 05:32:12;;;;;;;;;;;;;;;20.50;50.67;101604.06;4920314;29;2753;-67
2023/04/20 05:34:38;;;;;;;;;;;;;;;20.50;50.61;101615.59;4930091;29;2708;-68
2023/04/20 05:37:05;;;;;;;;;;;;;;;20.50;50.77;101609.81;4922193;29;2585;-67
2023/04/20 05:39:31;;;;;;;;;;;;;;;20.51;50.55;101599.06;4921048;29;2691;-67
2023/04/20 05:41:58;;;;;;;;;;;;;;;20.52;50.79;101609.19;4924079;29;2699;-68
2023/04/20 05:44:24;;;;;;;;;;;;;;;20.50;50.78;101609.81;4924257;29;2949;-68
2023/04/20 05:46:50;;;;;;;;;;;;;;;20.51;50.79;101602.69;4921902;29;2859;-68
2023/04/20 05:49:17;;;;;;;;;;;;;;;20.53;50.79;101612.81;4924185;29;2734;-67
2023/04/20 05:51:44;;;;;;;;;;;;;;;20.53;50.62;101618.56;4922253;29;2615;-67
2023/04/20 05:54:10;;;;;;;;;;;;;;;20.52;50.56;101617.81;4923255;29;2726;-67
2023/04/20 05:56:36;;;;;;;;;;;;;;;20.53;50.75;101609.94;4916034;29;2942;-68
2023/04/20 05:59:03;;;;;;;;;;;;;;;20.55;50.79;101627.31;4919434;29;2703;-68
2023/04/20 06:01:29;;;;;;;;;;;;;;;20.51;50.76;101625.69;4903034;29;2489;-68
2023/04/20 06:03:55;;;;;;;;;;;;;;;20.51;50.52;101613.44;4923321;29;2388;-66
2023/04/20 06:06:22;;;;;;;;;;;;;;;20.33;51.03;101618.88;4925336;29;2831;-65
2023/04/20 06:08:49;;;;;;;;;;;;;;;20.53;50.49;101612.81;4920680;29;2691;-65
2023/04/20 06:11:16;;;;;;;;;;;;;;;20.57;50.44;101636.09;4920733;29;2230;-65
2023/04/20 06:13:42;;;;;;;;;;;;;;;20.57;50.34;101631.09;4923390;29;2762;-65
2023/04/20 06:16:09;;;;;;;;;;;;;;;20.60;50.28;101644.22;4907176;29;2631;-64
2023/04/20 06:18:36;;;;;;;;;;;;;;;20.59;50.37;101639.84;4907650;29;2334;-65
2023/04/20 06:21:02;;;;;;;;;;;;;;;20.61;50.51;101630.56;4922308;29;2676;-65
2023/04/20 06:23:29;;;;;;;;;;;;;;;20.61;51.08;101642.09;4924406;29;2674;-65
2023/04/20 06:25:55;;;;;;;;;;;;;;;20.62;51.07;101643.59;4929639;29;3092;-64
2023/04/20 06:28:21;;;;;;;;;;;;;;;20.61;51.03;101639.19;4926317;29;2471;-65
2023/04/20 06:30:48;;;;;;;;;;;;;;;20.61;51.14;101653.59;4919304;29;2759;-64
2023/04/20 06:33:16;;;;;;;;;;;;;;;20.59;50.99;101644.84;4922069;29;2672;-64
2023/04/20 06:35:42;;;;;;;;;;;;;;;20.53;50.84;101632.97;4924127;29;2749;-64
2023/04/20 06:38:09;;;;;;;;;;;;;;;20.40;50.02;101629.38;4924464;29;2875;-64
2023/04/20 06:40:35;;;;;;;;;;;;;;;20.34;50.49;101643.41;4919222;29;3045;-64
2023/04/20 06:43:01;;;;;;;;;;;;;;;20.43;49.94;101648.25;4918491;29;2746;-65
2023/04/20 06:45:28;;;;;;;;;;;;;;;20.46;49.98;101652.75;4923237;29;2827;-64
2023/04/20 06:47:54;;;;;;;;;;;;;;;20.47;48.69;101647.72;4926060;29;2788;-65
2023/04/20 06:50:21;;;;;;;;;;;;;;;20.45;49.12;101654.09;4919755;29;2758;-64
2023/04/20 06:52:47;;;;;;;;;;;;;;;20.42;47.79;101648.88;4909846;29;2589;-65
2023/04/20 06:55:13;;;;;;;;;;;;;;;20.35;47.66;101656.41;4913748;29;2771;-65
2023/04/20 06:57:42;;;;;;;;;;;;;;;20.16;47.51;101656.69;4917019;29;2692;-65
2023/04/20 07:00:09;;;;;;;;;;;;;;;20.25;47.28;101661.56;4925377;29;2616;-65
2023/04/20 07:03:01;;;;;;;;;;;;;;;20.29;46.84;101661.78;4921261;29;2671;-65
2023/04/20 07:05:28;;;;;;;;;;;;;;;20.29;47.62;101653.16;4920625;29;2887;-68
2023/04/20 07:07:54;;;;;;;;;;;;;;;20.40;47.73;101645.88;4912701;29;3032;-67
2023/04/20 07:10:21;;;;;;;;;;;;;;;20.40;46.89;101661.00;4922817;29;2801;-67
2023/04/20 07:12:47;;;;;;;;;;;;;;;20.40;46.89;101649.50;4925073;29;2774;-68
2023/04/20 07:15:14;;;;;;;;;;;;;;;20.40;47.35;101655.25;4919599;29;2632;-71
2023/04/20 07:17:40;;;;;;;;;;;;;;;20.42;47.30;101649.63;4924988;29;2487;-71
2023/04/20 07:20:07;;;;;;;;;;;;;;;20.43;47.35;101656.88;4929448;29;1655;-71
2023/04/20 07:22:35;;;;;;;;;;;;;;;20.45;47.42;101654.09;4924931;29;2396;-71
2023/04/20 07:25:02;;;;;;;;;;;;;;;20.45;47.25;101654.09;4928084;29;1926;-70
2023/04/20 07:27:28;;;;;;;;;;;;;;;20.46;47.21;101661.38;4927978;29;2614;-71
2023/04/20 07:29:55;;;;;;;;;;;;;;;20.46;47.06;101661.38;4910207;29;3239;-71
2023/04/20 07:32:22;;;;;;;;;;;;;;;20.45;46.96;101667.75;4922436;29;2939;-71
2023/04/20 07:34:48;;;;;;;;;;;;;;;20.45;46.85;101676.38;4921302;29;2928;-71
2023/04/20 07:37:15;;;;;;;;;;;;;;;20.44;46.91;101663.38;4926254;29;2684;-71
2023/04/20 07:39:41;;;;;;;;;;;;;;;20.46;46.96;101672.13;4921302;29;2954;-71
2023/04/20 07:42:08;;;;;;;;;;;;;;;20.44;47.05;101675.63;4924312;29;2683;-69
2023/04/20 07:44:34;;;;;;;;;;;;;;;20.44;46.52;101675.63;4926738;29;2555;-69
2023/04/20 07:47:01;;;;;;;;;;;;;;;20.44;46.61;101666.25;4926408;29;2833;-66
2023/04/20 07:49:28;;;;;;;;;;;;;;;20.43;46.80;101679.91;4924166;29;2954;-66
2023/04/20 07:51:54;;;;;;;;;;;;;;;20.45;46.55;101682.88;4925079;29;3034;-66
2023/04/20 07:54:38;;;;;;;;;;;;;;;20.46;46.61;101683.66;4926957;29;2793;-66
2023/04/20 07:57:05;;;;;;;;;;;;;;;20.44;46.29;101678.50;4927048;29;2813;-66
2023/04/20 07:59:31;;;;;;;;;;;;;;;20.45;46.30;101682.88;4922875;29;2789;-67
2023/04/20 08:02:01;;;;;;;;;;;;;;;20.46;46.33;101690.16;4927899;29;2785;-67
2023/04/20 08:04:27;;;;;;;;;;;;;;;20.41;46.58;101679.78;4925074;29;2797;-75
2023/04/20 08:06:54;;;;;;;;;;;;;;;20.51;47.20;101674.59;4922777;29;2814;-70
2023/04/20 08:09:20;;;;;;;;;;;;;;;20.55;46.13;101684.84;4922325;29;2828;-70
2023/04/20 08:11:47;;;;;;;;;;;;;;;20.53;47.23;101681.88;4926004;29;2945;-69
2023/04/20 08:14:13;;;;;;;;;;;;;;;20.56;46.90;101675.63;4927812;29;2716;-69
2023/04/20 08:16:40;;;;;;;;;;;;;;;20.59;46.72;101685.13;4922358;29;2781;-69
2023/04/20 08:19:09;;;;;;;;;;;;;;;20.57;46.72;101682.13;4928469;29;2985;-69
2023/04/20 08:21:36;;;;;;;;;;;;;;;20.56;46.86;101680.59;4927274;29;2774;-69
2023/04/20 08:24:03;;;;;;;;;;;;;;;20.56;46.83;101681.38;4933323;29;2635;-69
2023/04/20 08:26:30;;;;;;;;;;;;;;;20.56;46.99;101684.25;4911468;29;2892;-69
2023/04/20 08:28:56;;;;;;;;;;;;;;;20.58;47.01;101680.75;4920458;29;2700;-69
2023/04/20 08:31:22;;;;;;;;;;;;;;;20.54;47.23;101692.75;4927910;29;2802;-70
2023/04/20 08:33:49;;;;;;;;;;;;;;;20.56;47.31;101683.50;4925300;29;2793;-79
2023/04/20 08:36:15;;;;;;;;;;;;;;;19.91;46.50;101697.59;4924705;29;2873;-72
2023/04/20 08:38:42;;;;;;;;;;;;;;;20.01;46.51;101698.94;4922951;29;2938;-69
2023/04/20 08:41:12;;;;;;;;;;;;;;;20.29;46.96;101699.16;4929006;29;3031;-69
2023/04/20 08:43:38;;;;;;;;;;;;;;;20.44;46.85;101704.41;4923539;29;2736;-69
2023/04/20 08:46:04;;;;;;;;;;;;;;;20.51;47.09;101691.88;4929909;29;2800;-69
2023/04/20 08:48:35;;;;;;;;;;;;;;;20.54;47.23;101689.13;4922836;29;2961;-68
2023/04/20 08:51:02;;;;;;;;;;;;;;;20.58;47.36;101690.13;4907426;29;3126;-69
2023/04/20 08:53:31;;;;;;;;;;;;;;;20.60;47.14;101686.63;4922429;29;2899;-69
2023/04/20 08:55:58;;;;;;;;;;;;;;;20.62;47.23;101683.88;4927706;29;1908;-69
2023/04/20 08:58:24;;;;;;;;;;;;;;;20.62;47.45;101695.38;4927129;29;2697;-68
2023/04/20 09:00:51;;;;;;;;;;;;;;;20.61;47.41;101688.13;4928462;29;2620;-68
2023/04/20 09:03:29;;;;;;;;;;;;;;;20.63;47.55;101679.59;4927336;29;2860;-68
2023/04/20 09:05:56;;;;;;;;;;;;;;;20.62;47.45;101683.88;4928424;29;2986;-68
2023/04/20 09:08:32;;;;;;;;;;;;;;;20.64;47.52;101692.63;4920798;29;2743;-68
2023/04/20 09:10:58;;;;;;;;;;;;;;;20.64;47.65;101695.50;4916352;29;2883;-68
2023/04/20 09:13:25;;;;;;;;;;;;;;;20.63;47.89;101697.63;4926595;29;2739;-68
2023/04/20 09:15:51;;;;;;;;;;;;;;;20.63;47.83;101697.63;4924907;29;2675;-68
2023/04/20 09:18:17;;;;;;;;;;;;;;;20.62;47.91;101696.13;4885486;29;2651;-68
2023/04/20 09:20:44;;;;;;;;;;;;;;;20.63;48.06;101691.13;4888262;29;2820;-68
2023/04/20 09:23:11;;;;;;;;;;;;;;;20.62;48.03;101689.63;4885103;29;2873;-68
2023/04/20 09:25:39;;;;;;;;;;;;;;;20.61;48.14;101696.75;4893142;29;2580;-68
2023/04/20 09:28:06;;;;;;;;;;;;;;;20.62;48.00;101690.38;4878645;29;3126;-68
2023/04/20 09:30:42;;;;;;;;;;;;;;;20.63;48.10;101694.00;4888578;29;2630;-68
2023/04/20 09:33:09;;;;;;;;;;;;;;;20.63;48.22;101694.00;4891953;29;2509;-68
2023/04/20 09:35:40;;;;;;;;;;;;;;;20.63;48.33;101703.38;4883771;29;2715;-68
2023/04/20 09:38:07;;;;;;;;;;;;;;;20.64;48.37;101704.16;4889852;29;2626;-68
2023/04/20 09:40:34;;;;;;;;;;;;;;;20.64;48.28;101693.38;4884678;29;2670;-68
2023/04/20 09:43:06;;;;;;;;;;;;;;;20.64;48.16;101692.63;4882430;29;2680;-70
2023/04/20 09:45:33;;;;;;;;;;;;;;;20.65;48.29;101691.25;4883477;29;2654;-70
2023/04/20 09:47:59;;;;;;;;;;;;;;;20.67;48.29;101686.34;4879969;29;2755;-70
2023/04/20 09:50:25;;;;;;;;;;;;;;;20.65;48.20;101691.25;4887250;29;2857;-70
2023/04/20 09:53:07;;;;;;;;;;;;;;;20.67;48.41;101682.72;4892244;29;1765;-70
2023/04/20 09:55:33;;;;;;;;;;;;;;;20.66;48.28;101676.22;4882043;29;2895;-70
2023/04/20 09:58:01;;;;;;;;;;;;;;;20.66;48.21;101678.34;4890452;29;1986;-69
2023/04/20 10:00:27;;;;;;;;;;;;;;;20.67;48.44;101680.59;4887049;29;2714;-70
2023/04/20 10:02:53;;;;;;;;;;;;;;;20.67;48.45;101676.97;4890004;29;2968;-70
2023/04/20 10:05:30;;;;;;;;;;;;;;;20.67;48.55;101680.59;4890970;29;2560;-70
2023/04/20 10:08:00;;;;;;;;;;;;;;;20.68;48.41;101672.69;4891043;29;2719;-70
2023/04/20 10:10:26;;;;;;;;;;;;;;;20.68;48.29;101676.34;4886055;29;2723;-70
2023/04/20 10:12:54;;;;;;;;;;;;;;;20.70;48.46;101681.47;4883598;29;1881;-70
2023/04/20 10:15:26;;;;;;;;;;;;;;;20.70;48.41;101672.81;4887443;29;2730;-70
2023/04/20 10:17:52;;;;;;;;;;;;;;;20.73;48.63;101679.44;4924188;29;2725;-70
2023/04/20 10:20:19;;;;;;;;;;;;;;;20.73;48.48;101682.31;4922030;29;2815;-70
2023/04/20 10:22:46;;;;;;;;;;;;;;;20.74;48.49;101673.06;4929676;29;1912;-70
2023/04/20 10:25:19;;;;;;;;;;;;;;;20.74;48.59;101678.81;4921726;29;2739;-70
2023/04/20 10:27:59;;;;;;;;;;;;;;;20.74;48.55;101683.84;4923788;29;2702;-70
2023/04/20 10:30:25;;;;;;;;;;;;;;;20.75;48.47;101686.06;4924706;29;2713;-70
2023/04/20 10:33:10;;;;;;;;;;;;;;;20.76;48.71;101686.84;4927769;29;2810;-71
2023/04/20 10:35:53;;;;;;;;;;;;;;;20.75;48.57;101685.31;4920130;29;2505;-70
2023/04/20 10:38:28;;;;;;;;;;;;;;;20.76;48.38;101670.31;4924132;29;2631;-70
2023/04/20 10:40:54;;;;;;;;;;;;;;;20.76;48.61;101669.56;4930367;29;2461;-70
2023/04/20 10:43:20;;;;;;;;;;;;;;;20.76;48.63;101667.44;4919617;29;2780;-70
2023/04/20 10:45:47;;;;;;;;;;;;;;;20.77;48.60;101671.78;4920105;29;2710;-70
2023/04/20 10:48:13;;;;;;;;;;;;;;;20.73;48.54;101665.06;4924308;29;2846;-70
2023/04/20 10:50:43;;;;;;;;;;;;;;;20.76;48.78;101666.69;4922409;29;2631;-70
2023/04/20 10:53:16;;;;;;;;;;;;;;;20.77;48.50;101666.03;4918925;29;3104;-70
2023/04/20 10:55:42;;;;;;;;;;;;;;;20.76;48.56;101652.28;4927173;29;2915;-69
2023/04/20 10:58:19;;;;;;;;;;;;;;;20.78;48.64;101661.78;4914383;29;1848;-68
2023/04/20 11:00:45;;;;;;;;;;;;;;;20.77;48.73;101660.28;4927312;28;2576;-69
2023/04/20 11:03:11;;;;;;;;;;;;;;;20.77;48.75;101660.28;4917023;29;1943;-69
2023/04/20 11:05:38;;;;;;;;;;;;;;;20.77;48.76;101640.13;4926980;29;2866;-68
2023/04/20 11:08:04;;;;;;;;;;;;;;;20.76;48.66;101640.78;4915882;29;2810;-69
2023/04/20 11:10:37;;;;;;;;;;;;;;;20.74;48.65;101638.53;4930679;29;2620;-69
2023/04/20 11:13:04;;;;;;;;;;;;;;;20.77;48.73;101637.25;4925804;29;2821;-69
2023/04/20 11:15:33;;;;;;;;;;;;;;;20.76;48.72;101643.66;4925232;29;2857;-69
2023/04/20 11:18:08;;;;;;;;;;;;;;;20.75;48.88;101640.00;4929121;29;2604;-69
2023/04/20 11:20:35;;;;;;;;;;;;;;;20.77;48.83;101643.00;4932630;29;2439;-69
2023/04/20 11:23:03;;;;;;;;;;;;;;;20.78;48.88;101644.53;4926339;29;2791;-69
2023/04/20 11:25:30;;;;;;;;;;;;;;;20.77;48.50;101645.16;4927670;29;2724;-69
2023/04/20 11:28:06;;;;;;;;;;;;;;;20.75;48.71;101645.03;4929904;29;2662;-69
2023/04/20 11:30:42;;;;;;;;;;;;;;;20.76;48.71;101653.03;4927683;29;2615;-69
2023/04/20 11:33:08;;;;;;;;;;;;;;;20.76;48.87;101641.53;4927899;29;2854;-69
2023/04/20 11:35:36;;;;;;;;;;;;;;;20.76;48.77;101646.53;4922834;29;2732;-68
2023/04/20 11:38:03;;;;;;;;;;;;;;;20.76;48.99;101640.78;4928236;29;3024;-68
2023/04/20 11:40:29;;;;;;;;;;;;;;;20.77;48.95;101636.50;4928726;29;2687;-69
2023/04/20 11:42:56;;;;;;;;;;;;;;;20.75;48.94;101640.00;4928939;29;2691;-69
2023/04/20 11:45:22;;;;;;;;;;;;;;;20.76;48.97;101641.53;4930077;29;2624;-69
2023/04/20 11:47:51;;;;;;;;;;;;;;;20.74;48.75;101638.53;4929787;29;2636;-69
2023/04/20 11:50:17;;;;;;;;;;;;;;;20.75;48.93;101640.00;4934004;29;2631;-69
2023/04/20 11:52:44;;;;;;;;;;;;;;;20.72;48.81;101641.28;4928569;29;2699;-69
2023/04/20 11:55:11;;;;;;;;;;;;;;;20.72;49.09;101629.78;4932142;29;1956;-69
2023/04/20 11:57:37;;;;;;;;;;;;;;;20.74;48.96;101617.63;4930112;29;2751;-69
2023/04/20 12:00:05;;;;;;;;;;;;;;;20.71;48.88;101616.78;4928065;29;2615;-69
2023/04/20 12:02:38;;;;;;;;;;;;;;;20.73;48.94;101613.25;4925881;29;2780;-69
2023/04/20 12:05:05;;;;;;;;;;;;;;;20.72;49.13;101606.75;4925688;29;2683;-69
2023/04/20 12:07:31;;;;;;;;;;;;;;;20.71;48.92;101614.63;4926216;29;2702;-69
2023/04/20 12:09:58;;;;;;;;;;;;;;;20.73;49.06;101605.38;4924920;29;2730;-69
2023/04/20 12:12:25;;;;;;;;;;;;;;;20.71;48.99;101608.13;4925969;29;2430;-69
2023/04/20 12:14:51;;;;;;;;;;;;;;;20.72;49.03;101606.75;4924436;29;2798;-69
2023/04/20 12:17:18;;;;;;;;;;;;;;;20.72;49.11;101601.00;4932320;29;2632;-69
2023/04/20 12:19:44;;;;;;;;;;;;;;;20.70;49.26;101610.25;4932093;29;1879;-68
2023/04/20 12:22:11;;;;;;;;;;;;;;;20.75;49.02;101602.59;4931057;29;1761;-68
2023/04/20 12:24:37;;;;;;;;;;;;;;;20.72;49.10;101603.88;4924477;29;1955;-69
2023/04/20 12:27:04;;;;;;;;;;;;;;;20.73;49.07;101604.59;4933301;29;1845;-69
2023/04/20 12:29:31;;;;;;;;;;;;;;;20.73;49.13;101596.75;4921791;29;2679;-69
2023/04/20 12:31:58;;;;;;;;;;;;;;;20.75;48.95;101596.84;4930506;29;2625;-69
2023/04/20 12:34:25;;;;;;;;;;;;;;;20.74;49.18;101592.47;4925651;29;3112;-69
2023/04/20 12:36:51;;;;;;;;;;;;;;;20.73;49.12;101591.00;4926698;29;2667;-69
2023/04/20 12:39:18;;;;;;;;;;;;;;;20.76;49.43;101586.84;4925931;29;3323;-69
2023/04/20 12:41:44;;;;;;;;;;;;;;;20.76;49.74;101583.22;4925248;29;2706;-69
2023/04/20 12:44:12;;;;;;;;;;;;;;;20.76;49.79;101577.47;4927423;29;2557;-69
2023/04/20 12:46:38;;;;;;;;;;;;;;;20.75;49.89;101579.56;4926449;29;2640;-69
2023/04/20 12:49:05;;;;;;;;;;;;;;;20.78;50.07;101577.56;4931723;29;2687;-70
2023/04/20 12:51:31;;;;;;;;;;;;;;;20.78;50.12;101575.44;4930871;29;1726;-68